Accueil
METAR-TAF:

METAR-TAF

Aéroports :

Curaçao, Antilles néerlandaises

Aéroport international de Curaçao

latitude: 12-12N, longitude: 068-58W, altitude: 9 m

Observation

Le bulletin a été fait il y a 1 heure et 6 minutes, à 22:00 UTC
Vent 12 kt de est
Température 29°C
Humidité 70%
Pression 1012 hPa
Visibilité 10 km ou plus
Quelques nuages à une hauteur de 1900 ft

METAR: TNCC 272200Z 08012KT 9999 FEW019 29/23 Q1012 NOSIG

Heure: 19:06 (23:06 UTC)

Prévision

Le bulletin a été fait il y a 7 heures et 26 minutes, à 15:40 UTC
Prévision valable du 27 à 18 UTC au 28 à 18 UTC
Vent 14 kt de est
Visibilité 10 km ou plus
Nuages épars à une hauteur de 2000 ft
Temporairement
du 28 à 08 UTC au 28 à 15 UTC
Nuages fragmentés à une hauteur de 1500 ft
Probabilité 30% :
Temporairement
du 28 à 08 UTC au 28 à 14 UTC
Visibilité: 8000 m
averses de pluie

TAF: TNCC 271540Z 2718/2818 10014KT 9999 SCT020 TEMPO 2808/2815 BKN015 PROB30 TEMPO 2808/2814 8000 SHRA

Observations et prévisions météorologiques de plus de 4000 aéroports (messages METAR et TAF).

Les stations disponibles sont représentées par des disques jaunes et rouges sur la carte.

Passer la souris dessus pour voir le nom de la station.

Cliquer dessus pour voir les observations et prévisions météorologiques.

Pour changer de carte: cliquez sur les boutons verts avec une croix noire pour zoomer, sur le bouton vert avec un tiret pour effectuer un zoom arrière, ou sur les flèches vertes pour les cartes adjacentes.


METAR-TAF: